Time;durP1;ratioP1;P1;durP2;ratioP2;P2;SDS_P1;SDS_P2;PMS_P1;PMS_P2;Temp;Humidity;BMP_temperature;BMP_pressure;BME280_temperature;BME280_humidity;BME280_pressure;Samples;Min_cycle;Max_cycle;Signal;HPM_P1;HPM_P2
2023/08/27 00:00:49;;;;;;;1.17;0.85;;;18.10;92.50;18.30;100219.00;;;;5029117;27;82928;-66
2023/08/27 00:03:15;;;;;;;1.85;1.40;;;18.10;92.60;18.30;100192.00;;;;5026468;27;113076;-67
2023/08/27 00:05:42;;;;;;;0.90;0.60;;;18.20;92.70;18.30;100180.00;;;;5022623;27;111187;-66
2023/08/27 00:08:08;;;;;;;1.00;0.88;;;18.20;92.90;18.40;100186.00;;;;5025820;27;82928;-66
2023/08/27 00:10:34;;;;;;;0.95;0.70;;;18.20;93.00;18.30;100174.00;;;;5019464;27;99806;-65
2023/08/27 00:12:59;;;;;;;1.60;1.50;;;18.20;93.20;18.30;100167.00;;;;5024254;27;112350;-66
2023/08/27 00:15:25;;;;;;;1.25;0.55;;;18.30;93.50;18.20;100174.00;;;;5024564;27;113133;-67
2023/08/27 00:17:51;;;;;;;0.68;0.68;;;18.10;93.60;18.20;100174.00;;;;5021552;27;109313;-66
2023/08/27 00:20:17;;;;;;;2.20;0.98;;;18.10;93.80;18.20;100174.00;;;;5020528;27;82889;-66
2023/08/27 00:22:43;;;;;;;1.00;0.90;;;18.10;94.00;18.20;100181.00;;;;5024985;27;84164;-66
2023/08/27 00:25:09;;;;;;;1.10;1.00;;;18.00;94.10;18.20;100172.00;;;;5008167;27;83510;-67
2023/08/27 00:27:35;;;;;;;0.65;0.60;;;18.00;94.40;18.10;100171.00;;;;5023303;27;104697;-66
2023/08/27 00:30:04;;;;;;;1.10;0.95;;;18.00;94.50;18.20;100162.00;;;;5025628;27;82935;-67
2023/08/27 00:32:33;;;;;;;1.05;0.90;;;18.00;94.70;18.20;100172.00;;;;5027130;27;82936;-66
2023/08/27 00:34:59;;;;;;;1.85;1.20;;;18.00;94.90;18.20;100186.00;;;;5025749;27;82609;-68
2023/08/27 00:37:25;;;;;;;1.73;1.48;;;18.10;95.10;18.20;100182.00;;;;5022360;27;102997;-66
2023/08/27 00:39:53;;;;;;;1.80;1.23;;;18.10;95.30;18.20;100189.00;;;;5028672;27;106690;-67
2023/08/27 00:42:19;;;;;;;1.20;1.10;;;18.10;95.60;18.20;100184.00;;;;5024886;27;112564;-66
2023/08/27 00:44:45;;;;;;;1.00;0.80;;;18.10;95.80;18.20;100185.00;;;;5022368;27;114383;-66
2023/08/27 00:47:12;;;;;;;0.68;0.68;;;18.10;96.00;18.20;100176.00;;;;5023626;27;83584;-66
2023/08/27 00:49:39;;;;;;;1.73;1.13;;;18.10;96.30;18.20;100178.00;;;;5025664;27;108384;-67
2023/08/27 00:52:07;;;;;;;2.25;0.90;;;18.10;96.40;18.20;100183.00;;;;5025656;27;99245;-66
2023/08/27 00:54:34;;;;;;;0.50;0.50;;;18.10;96.60;18.20;100181.00;;;;5022050;27;103784;-66
2023/08/27 00:57:03;;;;;;;1.05;0.70;;;18.10;96.70;18.20;100182.00;;;;5026761;27;85485;-67
2023/08/27 00:59:29;;;;;;;1.55;1.05;;;18.10;96.80;18.30;100170.00;;;;4997396;27;82069;-67
2023/08/27 01:01:55;;;;;;;1.20;1.10;;;18.10;97.00;18.30;100181.00;;;;5030003;27;105216;-67
2023/08/27 01:04:21;;;;;;;0.88;0.80;;;18.10;97.20;18.30;100186.00;;;;5024082;27;111508;-67
2023/08/27 01:06:47;;;;;;;2.03;1.05;;;18.20;97.50;18.30;100182.00;;;;5026241;27;110590;-67
2023/08/27 01:09:39;;;;;;;1.67;0.85;;;18.20;97.70;18.30;100175.00;;;;5024570;27;105597;-67
2023/08/27 01:12:33;;;;;;;1.65;0.93;;;18.20;97.90;18.20;100170.00;;;;5013524;27;82947;-67
2023/08/27 01:15:04;;;;;;;2.22;1.02;;;18.10;98.00;18.30;100167.00;;;;5002538;27;104687;-67
2023/08/27 01:17:32;;;;;;;0.68;0.68;;;18.10;98.20;18.30;100164.00;;;;5010001;27;82969;-67
2023/08/27 01:19:57;;;;;;;1.13;1.00;;;18.10;98.40;18.30;100157.00;;;;5023225;27;82777;-67
2023/08/27 01:22:23;;;;;;;1.00;0.85;;;18.10;98.60;18.20;100157.00;;;;5029144;27;111162;-67
2023/08/27 01:24:49;;;;;;;1.67;1.00;;;18.10;98.70;18.20;100158.00;;;;5028073;27;111440;-67
2023/08/27 01:27:29;;;;;;;1.15;1.05;;;18.10;98.90;18.20;100152.00;;;;5030600;27;110006;-67
2023/08/27 01:30:29;;;;;;;0.95;0.70;;;18.10;99.10;18.20;100140.00;;;;5026700;27;97919;-67
2023/08/27 01:33:19;;;;;;;0.82;0.60;;;18.10;99.30;18.10;100129.00;;;;5003356;27;102707;-66
2023/08/27 01:35:45;;;;;;;1.02;1.00;;;18.10;99.40;18.20;100122.00;;;;5014979;27;106620;-66
2023/08/27 01:38:12;;;;;;;4.57;1.00;;;18.00;99.50;18.10;100132.00;;;;5024885;27;82806;-67
2023/08/27 01:40:39;;;;;;;0.82;0.80;;;18.00;99.60;18.10;100137.00;;;;5029522;27;83163;-67
2023/08/27 01:43:05;;;;;;;1.10;1.00;;;18.00;99.70;18.10;100138.00;;;;5024856;27;84349;-67
2023/08/27 01:45:31;;;;;;;0.85;0.80;;;18.00;99.80;18.10;100143.00;;;;5030629;27;111432;-67
2023/08/27 01:47:57;;;;;;;1.83;0.95;;;18.00;99.90;18.10;100144.00;;;;5026713;27;110664;-66
2023/08/27 01:50:22;;;;;;;1.05;0.95;;;18.00;99.90;18.10;100158.00;;;;5028376;27;82104;-67
2023/08/27 01:52:48;;;;;;;1.15;0.85;;;18.00;99.90;18.10;100159.00;;;;5026308;27;83943;-65
2023/08/27 01:55:14;;;;;;;1.58;1.23;;;18.00;99.90;18.10;100157.00;;;;5025053;27;112257;-66
2023/08/27 01:57:39;;;;;;;0.65;0.65;;;18.00;99.90;18.10;100150.00;;;;5024820;27;110210;-66
2023/08/27 02:00:09;;;;;;;1.02;0.85;;;18.00;99.90;18.20;100148.00;;;;5025124;27;109448;-66
2023/08/27 02:02:38;;;;;;;0.95;0.80;;;18.00;99.90;18.20;100144.00;;;;5026485;27;82763;-66
2023/08/27 02:05:05;;;;;;;1.55;1.25;;;18.10;99.90;18.20;100132.00;;;;5026856;27;83434;-66
2023/08/27 02:07:34;;;;;;;0.85;0.75;;;18.10;99.90;18.20;100133.00;;;;5024663;27;83902;-66
2023/08/27 02:10:00;;;;;;;0.65;0.57;;;18.00;99.90;18.10;100151.00;;;;5027087;27;83043;-67
2023/08/27 02:12:26;;;;;;;1.02;0.70;;;18.00;99.90;18.20;100156.00;;;;5023651;27;112321;-66
2023/08/27 02:14:52;;;;;;;2.28;0.88;;;18.00;99.90;18.20;100166.00;;;;5024848;27;83019;-66
2023/08/27 02:17:17;;;;;;;1.13;1.02;;;18.00;99.90;18.10;100156.00;;;;5022940;27;82781;-66
2023/08/27 02:19:43;;;;;;;0.70;0.63;;;18.00;99.90;18.20;100151.00;;;;5024535;27;108808;-66
2023/08/27 02:22:09;;;;;;;1.02;0.80;;;18.00;99.90;18.20;100144.00;;;;5028522;27;113282;-66
2023/08/27 02:24:34;;;;;;;1.15;1.05;;;18.00;99.90;18.20;100143.00;;;;5027475;27;111679;-66
2023/08/27 02:27:00;;;;;;;1.60;1.20;;;18.10;99.90;18.20;100146.00;;;;5024602;27;111948;-66
2023/08/27 02:29:25;;;;;;;2.42;0.80;;;18.10;99.90;18.20;100146.00;;;;5031044;27;109788;-67
2023/08/27 02:31:51;;;;;;;1.73;0.70;;;18.10;99.90;18.20;100140.00;;;;5010231;27;112411;-66
2023/08/27 02:34:19;;;;;;;2.67;0.88;;;18.10;99.90;18.20;100125.00;;;;5026383;27;112264;-66
2023/08/27 02:36:45;;;;;;;0.95;0.68;;;18.10;99.90;18.20;100124.00;;;;5026013;27;82420;-66
2023/08/27 02:39:11;;;;;;;0.60;0.60;;;18.10;99.90;18.20;100108.00;;;;5025570;27;107364;-66
2023/08/27 02:41:37;;;;;;;0.93;0.80;;;18.10;99.90;18.20;100106.00;;;;5025562;27;84531;-66
2023/08/27 02:44:03;;;;;;;0.85;0.80;;;18.10;99.90;18.20;100107.00;;;;5027049;27;83585;-66
2023/08/27 02:46:29;;;;;;;0.70;0.70;;;18.10;99.90;18.20;100100.00;;;;5028288;27;91585;-66
2023/08/27 02:48:54;;;;;;;0.55;0.50;;;18.10;99.90;18.20;100114.00;;;;5026281;27;108454;-67
2023/08/27 02:51:20;;;;;;;0.95;0.77;;;18.10;99.90;18.10;100105.00;;;;5025937;27;112958;-66
2023/08/27 02:53:46;;;;;;;0.90;0.90;;;18.00;99.90;18.10;100096.00;;;;5025755;27;109503;-66
2023/08/27 02:56:12;;;;;;;0.73;0.70;;;18.00;99.90;18.10;100088.00;;;;5027274;27;83034;-67
2023/08/27 02:58:37;;;;;;;0.93;0.82;;;17.90;99.90;18.10;100084.00;;;;5023803;27;106971;-66
2023/08/27 03:01:04;;;;;;;0.75;0.75;;;18.00;99.90;18.10;100088.00;;;;5027213;27;111011;-66
2023/08/27 03:03:29;;;;;;;2.45;1.27;;;17.90;99.90;18.10;100091.00;;;;5027885;27;112436;-66
2023/08/27 03:05:55;;;;;;;1.30;0.77;;;17.90;99.90;18.10;100085.00;;;;5023809;27;110591;-66
2023/08/27 03:08:21;;;;;;;1.20;1.10;;;17.90;99.90;18.10;100083.00;;;;5027455;27;84577;-66
2023/08/27 03:10:47;;;;;;;2.35;1.13;;;17.90;99.90;18.10;100067.00;;;;5027479;27;113014;-66
2023/08/27 03:13:13;;;;;;;1.42;1.00;;;17.90;99.90;18.10;100063.00;;;;5027677;27;109151;-67
2023/08/27 03:15:38;;;;;;;1.33;0.70;;;17.90;99.90;18.10;100075.00;;;;5027197;27;109315;-67
2023/08/27 03:18:05;;;;;;;1.35;0.90;;;17.90;99.90;18.10;100069.00;;;;5030753;27;82941;-66
2023/08/27 03:20:32;;;;;;;1.25;0.80;;;17.90;99.90;18.10;100077.00;;;;5010864;27;85826;-67
2023/08/27 03:22:57;;;;;;;1.10;0.98;;;17.90;99.90;18.10;100076.00;;;;5031065;27;83605;-66
2023/08/27 03:25:23;;;;;;;0.80;0.80;;;17.90;99.90;18.10;100078.00;;;;5032349;27;111165;-66
2023/08/27 03:27:48;;;;;;;1.27;1.10;;;18.00;99.90;18.10;100063.00;;;;5030083;27;109622;-66
2023/08/27 03:30:17;;;;;;;0.70;0.70;;;18.00;99.90;18.20;100058.00;;;;5029275;27;113259;-66
2023/08/27 03:32:43;;;;;;;0.70;0.60;;;18.00;99.90;18.10;100060.00;;;;5037138;27;83253;-67
2023/08/27 03:35:09;;;;;;;2.35;1.17;;;18.00;99.90;18.10;100065.00;;;;5033486;27;111202;-67
2023/08/27 03:37:34;;;;;;;1.02;0.95;;;18.00;99.90;18.10;100064.00;;;;5031861;27;82753;-67
2023/08/27 03:40:07;;;;;;;1.65;0.85;;;18.00;99.90;18.10;100074.00;;;;5030887;27;112010;-67
2023/08/27 03:42:32;;;;;;;0.75;0.75;;;18.00;99.90;18.20;100070.00;;;;5025175;27;103175;-67
2023/08/27 03:45:00;;;;;;;0.98;0.85;;;18.10;99.90;18.20;100079.00;;;;5025398;27;109745;-67
2023/08/27 03:47:26;;;;;;;1.25;1.15;;;18.00;99.90;18.20;100074.00;;;;5028064;27;83093;-66
2023/08/27 03:49:52;;;;;;;1.10;0.85;;;18.10;99.90;18.20;100069.00;;;;5027860;27;84224;-66
2023/08/27 03:52:18;;;;;;;1.67;1.23;;;18.10;99.90;18.30;100065.00;;;;5027654;27;112696;-67
2023/08/27 03:54:44;;;;;;;9.35;1.52;;;18.10;99.90;18.30;100058.00;;;;5029111;27;82638;-68
2023/08/27 03:57:09;;;;;;;1.92;1.25;;;18.10;99.90;18.30;100055.00;;;;5005962;27;107663;-67
2023/08/27 03:59:35;;;;;;;1.42;1.15;;;18.10;99.90;18.30;100065.00;;;;5007524;27;89372;-65
2023/08/27 04:02:01;;;;;;;1.13;1.00;;;18.10;99.90;18.30;100065.00;;;;5026736;27;83549;-66
2023/08/27 04:04:26;;;;;;;1.63;0.63;;;18.10;99.90;18.20;100060.00;;;;5025111;27;110134;-66
2023/08/27 04:06:54;;;;;;;1.23;0.80;;;18.10;99.90;18.30;100067.00;;;;5028779;27;109401;-67
2023/08/27 04:09:20;;;;;;;1.98;0.90;;;18.10;99.90;18.30;100058.00;;;;5025904;27;84234;-67
2023/08/27 04:11:46;;;;;;;1.40;1.30;;;18.10;99.90;18.30;100066.00;;;;5031954;27;83148;-66
2023/08/27 04:14:12;;;;;;;1.35;1.25;;;18.10;99.90;18.30;100067.00;;;;5027275;27;110717;-67
2023/08/27 04:16:37;;;;;;;1.17;1.08;;;18.10;99.90;18.30;100076.00;;;;5032129;27;108734;-67
2023/08/27 04:19:03;;;;;;;2.53;1.42;;;18.10;99.90;18.20;100068.00;;;;5024334;27;113334;-66
2023/08/27 04:21:29;;;;;;;1.65;1.08;;;18.10;99.90;18.20;100075.00;;;;5024991;27;112570;-67
2023/08/27 04:23:55;;;;;;;2.15;1.50;;;18.10;99.90;18.20;100079.00;;;;5024550;27;100330;-67
2023/08/27 04:26:22;;;;;;;1.58;1.30;;;18.10;99.90;18.20;100088.00;;;;5025446;27;84299;-66
2023/08/27 04:28:48;;;;;;;1.33;1.10;;;18.10;99.90;18.20;100070.00;;;;5022993;27;102502;-67
2023/08/27 04:31:16;;;;;;;2.40;1.30;;;18.10;99.90;18.20;100073.00;;;;5024269;27;102033;-66
2023/08/27 04:33:42;;;;;;;1.20;1.10;;;18.10;99.90;18.30;100068.00;;;;5028278;27;82705;-67
2023/08/27 04:36:08;;;;;;;3.00;1.80;;;18.10;99.90;18.30;100058.00;;;;5026821;27;87132;-66
2023/08/27 04:38:34;;;;;;;1.20;0.80;;;18.10;99.90;18.20;100073.00;;;;5024755;27;113283;-65
2023/08/27 04:41:00;;;;;;;1.63;1.30;;;18.10;99.90;18.20;100058.00;;;;5032368;27;83237;-66
2023/08/27 04:43:26;;;;;;;1.33;1.23;;;18.10;99.90;18.20;100073.00;;;;5025571;27;109164;-67
2023/08/27 04:45:53;;;;;;;1.40;1.08;;;18.10;99.90;18.20;100062.00;;;;5024297;27;107245;-67
2023/08/27 04:48:19;;;;;;;2.60;1.63;;;18.10;99.90;18.30;100068.00;;;;5024214;27;84077;-68
2023/08/27 04:50:46;;;;;;;3.70;1.25;;;18.10;99.90;18.30;100069.00;;;;5027448;27;96488;-65
2023/08/27 04:53:12;;;;;;;1.63;1.23;;;18.10;99.90;18.30;100069.00;;;;5027965;27;111341;-66
2023/08/27 04:55:41;;;;;;;1.25;0.98;;;18.10;99.90;18.30;100084.00;;;;5027480;27;83400;-66
2023/08/27 04:58:08;;;;;;;1.77;1.13;;;18.20;99.90;18.30;100080.00;;;;5027141;27;83866;-66
2023/08/27 05:00:34;;;;;;;1.60;1.50;;;18.30;99.90;18.40;100081.00;;;;5016280;27;82803;-67
2023/08/27 05:03:01;;;;;;;1.48;1.10;;;18.20;99.90;18.40;100078.00;;;;5009252;27;103362;-67
2023/08/27 05:05:27;;;;;;;1.13;0.95;;;18.20;99.90;18.40;100066.00;;;;5008671;27;82343;-66
2023/08/27 05:07:54;;;;;;;1.75;1.08;;;18.30;99.90;18.50;100069.00;;;;5027743;27;112187;-66
2023/08/27 05:10:20;;;;;;;1.15;0.85;;;18.30;99.90;18.50;100066.00;;;;5024690;27;84036;-66
2023/08/27 05:12:46;;;;;;;1.42;1.25;;;18.40;99.90;18.60;100058.00;;;;5027057;27;99030;-66
2023/08/27 05:15:11;;;;;;;1.05;0.95;;;18.40;99.90;18.60;100058.00;;;;5025798;27;100725;-68
2023/08/27 05:17:37;;;;;;;1.00;1.00;;;18.40;99.90;18.60;100048.00;;;;5025163;27;111649;-66
2023/08/27 05:20:04;;;;;;;1.48;1.05;;;18.40;99.90;18.60;100047.00;;;;5030107;27;113033;-66
2023/08/27 05:22:30;;;;;;;1.60;1.10;;;18.40;99.90;18.60;100034.00;;;;5028411;27;84184;-66
2023/08/27 05:24:55;;;;;;;2.00;1.33;;;18.40;99.90;18.60;100028.00;;;;5031318;27;107599;-66
2023/08/27 05:27:21;;;;;;;0.90;0.80;;;18.50;99.90;18.60;100043.00;;;;5028261;27;113054;-66
2023/08/27 05:29:47;;;;;;;0.93;0.80;;;18.50;99.90;18.60;100042.00;;;;5027560;27;114572;-66
2023/08/27 05:32:12;;;;;;;1.05;1.05;;;18.50;99.90;18.70;100040.00;;;;5022710;27;110504;-66
2023/08/27 05:34:38;;;;;;;1.27;0.63;;;18.50;99.90;18.70;100033.00;;;;5026359;27;107755;-66
2023/08/27 05:37:04;;;;;;;1.05;0.95;;;18.50;99.90;18.70;100034.00;;;;5024535;27;84183;-66
2023/08/27 05:39:29;;;;;;;0.55;0.55;;;18.50;99.90;18.70;100034.00;;;;5025510;27;113643;-66
2023/08/27 05:41:55;;;;;;;1.02;0.90;;;18.50;99.90;18.70;100027.00;;;;5026080;27;82799;-66
2023/08/27 05:44:21;;;;;;;3.00;1.27;;;18.50;99.90;18.70;100030.00;;;;5022878;27;107922;-66
2023/08/27 05:46:46;;;;;;;1.20;0.80;;;18.50;99.90;18.70;100024.00;;;;5028441;27;83992;-67
2023/08/27 05:49:12;;;;;;;0.82;0.57;;;18.50;99.90;18.70;100025.00;;;;5027488;27;111372;-66
2023/08/27 05:51:38;;;;;;;1.10;1.00;;;18.50;99.90;18.70;100032.00;;;;5024988;27;82855;-66
2023/08/27 05:54:04;;;;;;;3.75;1.00;;;18.50;99.90;18.70;100039.00;;;;5007187;27;108524;-67
2023/08/27 05:56:30;;;;;;;2.22;1.17;;;18.50;99.90;18.60;100034.00;;;;5029308;27;93640;-66
2023/08/27 05:58:57;;;;;;;2.17;1.13;;;18.50;99.90;18.60;100022.00;;;;5026096;27;112351;-65
2023/08/27 06:01:23;;;;;;;2.80;1.38;;;18.50;99.90;18.60;100029.00;;;;5026061;27;83869;-66
2023/08/27 06:03:49;;;;;;;1.50;1.15;;;18.40;99.90;18.60;100027.00;;;;5023210;27;109013;-66
2023/08/27 06:06:14;;;;;;;0.73;0.50;;;18.40;99.90;18.60;100031.00;;;;5027647;27;112589;-66
2023/08/27 06:08:40;;;;;;;1.00;0.75;;;18.40;99.90;18.60;100049.00;;;;5024897;27;111997;-66
2023/08/27 06:11:06;;;;;;;1.08;0.98;;;18.50;99.90;18.70;100056.00;;;;5028150;27;109300;-66
2023/08/27 06:13:31;;;;;;;0.70;0.70;;;18.50;99.90;18.70;100055.00;;;;5026014;27;102047;-67
2023/08/27 06:15:57;;;;;;;1.17;0.85;;;18.50;99.90;18.70;100057.00;;;;5006399;27;116813;-66
2023/08/27 06:18:23;;;;;;;1.30;1.15;;;18.50;99.90;18.70;100060.00;;;;5024933;27;116431;-66
2023/08/27 06:20:49;;;;;;;1.50;0.93;;;18.50;99.90;18.60;100068.00;;;;5024305;27;110581;-66
2023/08/27 06:23:15;;;;;;;0.80;0.70;;;18.50;99.90;18.50;100069.00;;;;5026339;27;87986;-68
2023/08/27 06:25:40;;;;;;;1.83;0.68;;;18.40;99.90;18.50;100066.00;;;;5026874;27;119521;-67
2023/08/27 06:28:07;;;;;;;0.95;0.90;;;18.40;99.90;18.40;100065.00;;;;5027622;27;118889;-67
2023/08/27 06:30:33;;;;;;;1.80;0.77;;;18.30;99.90;18.40;100060.00;;;;5028378;27;101690;-67
2023/08/27 06:33:00;;;;;;;1.55;1.20;;;18.30;99.90;18.30;100065.00;;;;5023883;27;88001;-67
2023/08/27 06:35:26;;;;;;;3.03;0.98;;;18.20;99.90;18.20;100058.00;;;;5007519;27;96450;-67
2023/08/27 06:37:51;;;;;;;1.10;1.02;;;18.20;99.90;18.20;100063.00;;;;5016473;27;90322;-66
2023/08/27 06:40:17;;;;;;;0.50;0.50;;;18.10;99.90;18.10;100057.00;;;;5027074;27;110460;-66
2023/08/27 06:42:43;;;;;;;1.23;0.95;;;18.00;99.90;18.10;100063.00;;;;5022505;27;97165;-65
2023/08/27 06:45:12;;;;;;;0.98;0.82;;;17.90;99.90;18.00;100053.00;;;;5025223;27;88238;-66
2023/08/27 06:47:38;;;;;;;2.47;1.45;;;17.90;99.90;17.90;100059.00;;;;5026550;27;88262;-65
2023/08/27 06:50:04;;;;;;;1.10;1.08;;;17.80;99.90;17.80;100060.00;;;;5026157;27;108832;-63
2023/08/27 06:52:33;;;;;;;1.00;0.90;;;17.80;99.90;17.80;100054.00;;;;5028047;27;88126;-63
2023/08/27 06:55:00;;;;;;;1.23;1.02;;;17.80;99.90;17.80;100048.00;;;;5024990;27;90484;-65
2023/08/27 06:57:26;;;;;;;1.67;1.15;;;17.70;99.90;17.80;100041.00;;;;5025852;27;92991;-65
2023/08/27 06:59:52;;;;;;;3.17;1.55;;;17.70;99.90;17.80;100050.00;;;;5026528;27;110724;-65
2023/08/27 07:02:17;;;;;;;1.77;1.08;;;17.70;99.90;17.90;100049.00;;;;5026924;27;87664;-65
2023/08/27 07:04:43;;;;;;;1.35;1.15;;;17.70;99.90;17.90;100046.00;;;;5031084;27;117611;-66
2023/08/27 07:07:09;;;;;;;2.78;1.67;;;17.70;99.90;17.90;100042.00;;;;5025587;27;117597;-66
2023/08/27 07:09:35;;;;;;;0.93;0.70;;;17.80;99.90;17.90;100050.00;;;;5024980;27;110549;-65
2023/08/27 07:12:02;;;;;;;2.30;1.20;;;17.80;99.90;18.00;100050.00;;;;5025569;27;88215;-66
2023/08/27 07:14:27;;;;;;;1.60;1.20;;;17.80;99.90;18.00;100056.00;;;;5019325;27;105549;-66
2023/08/27 07:16:53;;;;;;;1.30;1.17;;;17.90;99.90;18.10;100051.00;;;;5020335;27;118662;-67
2023/08/27 07:19:20;;;;;;;1.25;1.15;;;17.90;99.90;18.10;100057.00;;;;5020389;27;110903;-66
2023/08/27 07:21:45;;;;;;;1.65;1.13;;;18.00;99.90;18.20;100060.00;;;;5024655;27;87956;-66
2023/08/27 07:24:13;;;;;;;1.30;1.20;;;18.00;99.90;18.20;100054.00;;;;5022245;27;117269;-67
2023/08/27 07:26:39;;;;;;;1.17;0.93;;;18.10;99.90;18.30;100038.00;;;;5021227;27;88873;-67
2023/08/27 07:29:05;;;;;;;2.80;1.27;;;18.20;99.90;18.40;100045.00;;;;5001032;27;88514;-67
2023/08/27 07:31:31;;;;;;;3.10;1.35;;;18.20;99.90;18.50;100044.00;;;;5018394;27;108832;-67
2023/08/27 07:33:57;;;;;;;1.70;0.95;;;18.30;99.90;18.60;100045.00;;;;5021181;27;88123;-66
2023/08/27 07:36:22;;;;;;;1.05;0.95;;;18.40;99.90;18.70;100047.00;;;;5017773;27;117481;-66
2023/08/27 07:38:48;;;;;;;1.50;1.40;;;18.50;99.90;18.80;100049.00;;;;5020161;27;89852;-67
2023/08/27 07:41:14;;;;;;;1.13;1.05;;;18.60;99.90;18.80;100051.00;;;;5021765;27;108641;-68
2023/08/27 07:43:39;;;;;;;1.20;1.10;;;18.60;99.90;18.80;100047.00;;;;5020336;27;117400;-67
2023/08/27 07:46:05;;;;;;;1.63;1.02;;;18.70;99.90;18.90;100054.00;;;;5018515;27;117818;-67
2023/08/27 07:48:32;;;;;;;4.03;1.55;;;18.50;99.90;18.90;100049.00;;;;5017559;27;110642;-67
2023/08/27 07:50:58;;;;;;;4.97;1.33;;;18.70;99.90;18.90;100051.00;;;;5022653;27;87825;-68
2023/08/27 07:53:24;;;;;;;1.20;1.10;;;18.70;99.90;18.90;100048.00;;;;5021815;27;88819;-67
2023/08/27 07:55:50;;;;;;;1.80;1.10;;;18.70;99.90;18.90;100056.00;;;;4991656;27;103156;-66
2023/08/27 07:58:16;;;;;;;1.13;1.00;;;18.80;99.90;19.00;100054.00;;;;5019925;27;89530;-66
2023/08/27 08:00:42;;;;;;;1.38;1.23;;;18.80;99.90;19.00;100059.00;;;;5021178;27;88886;-66
2023/08/27 08:03:07;;;;;;;1.35;1.25;;;18.90;99.90;19.10;100056.00;;;;5015007;27;117127;-66
2023/08/27 08:05:33;;;;;;;2.45;1.15;;;18.90;99.90;19.10;100054.00;;;;5020402;27;89045;-66
2023/08/27 08:07:59;;;;;;;1.50;1.27;;;19.00;99.90;19.20;100054.00;;;;5017203;27;110767;-66
2023/08/27 08:10:24;;;;;;;1.25;1.15;;;19.00;99.90;19.30;100053.00;;;;5015352;27;108287;-67
2023/08/27 08:12:52;;;;;;;1.95;1.38;;;19.10;99.90;19.40;100043.00;;;;5017644;27;116724;-65
2023/08/27 08:15:18;;;;;;;0.95;0.82;;;19.20;99.90;19.50;100029.00;;;;5019607;27;88049;-66
2023/08/27 08:17:44;;;;;;;3.10;2.28;;;19.30;99.90;19.70;100032.00;;;;5019454;27;96350;-64
2023/08/27 08:20:11;;;;;;;1.38;1.27;;;19.40;99.90;19.80;100024.00;;;;5021994;27;87321;-64
2023/08/27 08:22:38;;;;;;;1.38;0.90;;;19.50;99.90;19.90;100024.00;;;;5021929;27;88182;-64
2023/08/27 08:25:05;;;;;;;1.13;1.02;;;19.60;99.90;19.90;100015.00;;;;5022982;27;88472;-64
2023/08/27 08:27:31;;;;;;;3.45;1.90;;;19.70;99.90;20.00;100015.00;;;;5020820;27;88809;-64
2023/08/27 08:29:56;;;;;;;1.63;1.20;;;19.80;99.90;20.00;100000.00;;;;5025243;27;88061;-65
2023/08/27 08:32:22;;;;;;;1.10;0.95;;;19.80;99.90;20.00;99993.00;;;;5018626;27;118042;-66
2023/08/27 08:34:48;;;;;;;0.80;0.65;;;19.80;99.90;20.00;99989.00;;;;5016365;27;117179;-66
2023/08/27 08:37:13;;;;;;;1.30;1.20;;;19.90;99.90;20.10;99978.00;;;;5020742;27;102524;-67
2023/08/27 08:39:40;;;;;;;1.75;1.65;;;19.90;99.90;20.10;99992.00;;;;5014221;27;108910;-65
2023/08/27 08:42:31;;;;;;;2.22;1.50;;;19.90;99.90;20.10;99986.00;;;;5024263;27;88013;-65
2023/08/27 08:45:17;;;;;;;1.65;1.25;;;19.90;99.90;20.20;99987.00;;;;5002730;27;87291;-65
2023/08/27 08:47:44;;;;;;;1.83;1.48;;;20.00;99.90;20.30;99990.00;;;;5001037;27;99138;-65
2023/08/27 08:50:13;;;;;;;0.95;0.65;;;20.00;99.90;20.30;99979.00;;;;5018672;27;91485;-66
2023/08/27 08:52:39;;;;;;;1.17;1.13;;;20.10;99.90;20.40;99976.00;;;;5017857;27;89514;-66
2023/08/27 08:55:10;;;;;;;2.33;1.17;;;20.20;99.90;20.50;99977.00;;;;5025161;27;88764;-66
2023/08/27 08:57:41;;;;;;;1.95;1.30;;;20.20;99.90;20.50;99976.00;;;;5019316;27;88130;-66
2023/08/27 09:00:11;;;;;;;3.13;1.63;;;20.30;99.90;20.50;99986.00;;;;5003431;27;87830;-66
2023/08/27 09:02:37;;;;;;;2.42;1.38;;;20.20;99.90;20.40;99992.00;;;;5022166;27;87902;-67
2023/08/27 09:05:05;;;;;;;2.00;1.13;;;20.20;99.90;20.50;99987.00;;;;5009976;27;88325;-66
2023/08/27 09:07:37;;;;;;;1.23;1.13;;;20.30;99.90;20.50;99986.00;;;;5017842;27;92550;-65
2023/08/27 09:10:04;;;;;;;3.60;1.35;;;20.30;99.90;20.50;99975.00;;;;5018518;27;87514;-66
2023/08/27 09:12:40;;;;;;;2.97;1.20;;;20.30;99.90;20.50;99976.00;;;;5016893;27;104240;-65
2023/08/27 09:15:11;;;;;;;1.85;1.63;;;20.30;99.90;20.40;99978.00;;;;5018428;27;88057;-65
2023/08/27 09:17:37;;;;;;;1.55;1.33;;;20.20;99.90;20.40;99979.00;;;;5000517;27;96455;-66
2023/08/27 09:20:05;;;;;;;1.13;1.08;;;20.20;99.90;20.40;99973.00;;;;4995214;27;95849;-65
2023/08/27 09:22:35;;;;;;;2.40;1.10;;;20.20;99.90;20.30;99975.00;;;;5021870;27;88020;-65
2023/08/27 09:25:01;;;;;;;1.50;1.40;;;20.20;99.90;20.30;99967.00;;;;5023256;27;88674;-66
2023/08/27 09:27:28;;;;;;;1.60;0.75;;;20.10;99.90;20.30;99975.00;;;;5019158;27;99385;-65
2023/08/27 09:29:57;;;;;;;2.25;1.23;;;20.20;99.90;20.30;99968.00;;;;5016536;27;100686;-66
2023/08/27 09:32:23;;;;;;;1.40;1.30;;;20.20;99.90;20.40;99958.00;;;;5001660;27;88297;-66
2023/08/27 09:34:58;;;;;;;1.63;0.90;;;20.20;99.90;20.40;99955.00;;;;5016758;27;94206;-66
2023/08/27 09:37:27;;;;;;;3.05;1.38;;;20.20;99.90;20.40;99954.00;;;;5018403;27;87734;-66
2023/08/27 09:39:54;;;;;;;0.90;0.90;;;20.20;99.90;20.40;99954.00;;;;5014326;27;87892;-66
2023/08/27 09:42:21;;;;;;;1.00;1.00;;;20.20;99.90;20.40;99955.00;;;;5018090;27;89987;-67
2023/08/27 09:44:54;;;;;;;1.40;1.08;;;20.20;99.90;20.40;99953.00;;;;5015214;27;88733;-67
2023/08/27 09:47:34;;;;;;;0.60;0.60;;;20.20;99.90;20.40;99949.00;;;;5016786;27;87976;-66
2023/08/27 09:50:04;;;;;;;2.10;1.48;;;20.20;99.90;20.40;99955.00;;;;5020605;27;87838;-66
2023/08/27 09:52:30;;;;;;;2.25;1.42;;;20.20;99.90;20.40;99954.00;;;;5016235;27;103604;-66
2023/08/27 09:54:56;;;;;;;7.00;1.52;;;20.20;99.90;20.40;99950.00;;;;5016313;27;103672;-66
2023/08/27 09:57:22;;;;;;;1.20;1.10;;;20.20;99.90;20.40;99950.00;;;;5018590;27;109959;-66
2023/08/27 09:59:48;;;;;;;2.20;0.93;;;20.20;99.90;20.40;99967.00;;;;5017270;27;89025;-67
2023/08/27 10:02:18;;;;;;;1.50;0.85;;;20.20;99.90;20.40;99971.00;;;;5000862;27;117268;-67
2023/08/27 10:04:56;;;;;;;2.17;1.20;;;20.20;99.90;20.40;99979.00;;;;5019497;27;88110;-66
2023/08/27 10:07:23;;;;;;;1.15;1.00;;;20.30;99.90;20.50;99981.00;;;;5017144;27;110018;-66
2023/08/27 10:09:54;;;;;;;1.50;1.40;;;20.30;99.90;20.60;99982.00;;;;5020270;27;87943;-67
2023/08/27 10:12:21;;;;;;;1.05;1.05;;;20.40;99.90;20.70;99982.00;;;;5002776;27;87989;-66
2023/08/27 10:14:47;;;;;;;2.88;1.65;;;20.50;99.90;20.90;99976.00;;;;5017956;27;109189;-67
2023/08/27 10:17:14;;;;;;;2.67;1.55;;;20.60;99.90;21.00;99976.00;;;;5017136;27;104133;-68
2023/08/27 10:19:41;;;;;;;1.13;1.05;;;20.70;99.90;21.10;99979.00;;;;5017900;27;87820;-67
2023/08/27 10:22:07;;;;;;;1.98;1.63;;;20.80;99.90;21.20;99978.00;;;;5016965;27;89216;-67
2023/08/27 10:24:34;;;;;;;1.67;1.20;;;20.90;99.90;21.30;99984.00;;;;5015846;27;92989;-66
2023/08/27 10:27:03;;;;;;;1.27;1.17;;;21.00;99.90;21.40;99980.00;;;;5019488;27;88087;-66
2023/08/27 10:29:29;;;;;;;2.22;1.38;;;21.10;99.90;21.50;99983.00;;;;5018013;27;87830;-67
2023/08/27 10:31:55;;;;;;;1.38;1.23;;;21.20;99.90;21.70;99990.00;;;;5020003;27;89503;-69
2023/08/27 10:34:28;;;;;;;1.30;1.08;;;21.30;99.90;21.80;99976.00;;;;4994224;27;89908;-66
2023/08/27 10:36:59;;;;;;;1.92;1.60;;;21.50;99.90;21.90;99979.00;;;;5016989;27;87794;-67
2023/08/27 10:39:29;;;;;;;0.82;0.82;;;21.60;99.90;22.00;99964.00;;;;5005150;27;88421;-67
2023/08/27 10:41:55;;;;;;;3.35;1.27;;;21.70;99.90;22.20;99956.00;;;;5007681;27;104730;-66
2023/08/27 10:44:21;;;;;;;1.38;1.25;;;21.80;99.90;22.30;99953.00;;;;5020588;27;103854;-67